Bacacheri Airport
SBBI : rendu visible

Aérodrome :











RETROUVEZ-NOUS SUR...

 
LOGIN :

S'inscrire | Disclaimer

   EN    FR    IT 

 









Légende :    VFR   VFR Marginal   IFR   IFR Intensif   IFR Très Intensif
Visi : 
Plafond : 
>= 8 km
>= 3000ft
5 à 8 km
1000 à 3000 ft
1500m à 5 km
500 à 1000 ft
800 à 1500m
200 à 500 ft
< 800m
< 200 ft
Symboles :   Orages  Brouillard  Fortes neiges  Fortes précipitations  Vent > 20 kt






- Altitude de l'aérodrome : 3057 ft
- Code IATA : 0


SBBI - Bacacheri

DERNIER METAR :
  • 221300Z 09009KT 9999 BKN015 11/07 Q1027

METARs EXPIRÉS :
  • 221200Z 09008KT 9999 OVC013 11/07 Q1026
  • 221100Z 09008KT 9999 OVC012 09/07 Q1026

TAF TAF SBBI
Valide du 22 à 12h jusqu'au 23 à 00h UTC


220900Z 2212/2224 09007KT 9999 BKN010 TX27/2218Z TN15/2223Z
BECMG 2216/2218 BKN008 BKN015 RMK PEQ
FIR SBCW / Amérique du Sud



MET'MAP, la Météo Aéronautique d'un coup d'oeil ! - Copyright ORBIFLY Décembre 2007 - Disclaimer

ORBIFLY MET'MAP TEAM :

Programmation & Développement : Alexandra Zaïnal
Sur une idée originale de : Baudouin d'Aumeries
Assistance à la programmation : Marc-Olivier Méhu
Soutien technique & logistique : Manuel Goepfert

Contact : metmap@orbifly.com




SOURCES & CREDITS :

   NOAA       Earth
Advisory